Time;durP1;ratioP1;P1;durP2;ratioP2;P2;SDS_P1;SDS_P2;PMS_P1;PMS_P2;Temp;Humidity;BMP_temperature;BMP_pressure;BME280_temperature;BME280_humidity;BME280_pressure;Samples;Min_cycle;Max_cycle;Signal;HPM_P1;HPM_P2
2022/04/25 00:02:09;;;;;;;1.50;1.13;;;;;;;;;;7394159;19;20021;-82
2022/04/25 00:04:35;;;;;;;2.03;1.20;;;;;;;;;;7397509;19;20031;-82
2022/04/25 00:07:00;;;;;;;1.65;1.02;;;;;;;;;;7395040;19;20371;-81
2022/04/25 00:09:25;;;;;;;2.47;1.05;;;;;;;;;;7392889;19;20140;-81
2022/04/25 00:11:50;;;;;;;1.10;1.00;;;;;;;;;;7389868;19;20009;-81
2022/04/25 00:14:16;;;;;;;2.08;1.02;;;;;;;;;;7388593;19;20499;-81
2022/04/25 00:16:41;;;;;;;1.33;1.00;;;;;;;;;;7394218;19;20015;-82
2022/04/25 00:19:08;;;;;;;1.92;1.23;;;;;;;;;;7394180;19;20006;-82
2022/04/25 00:21:33;;;;;;;2.53;1.10;;;;;;;;;;7391642;19;20106;-81
2022/04/25 00:23:59;;;;;;;2.05;1.60;;;;;;;;;;7388510;19;20448;-81
2022/04/25 00:26:24;;;;;;;1.80;1.45;;;;;;;;;;7393398;19;20460;-83
2022/04/25 00:28:50;;;;;;;1.60;1.23;;;;;;;;;;7392228;19;20014;-82
2022/04/25 00:31:15;;;;;;;1.95;1.40;;;;;;;;;;7390401;19;20017;-82
2022/04/25 00:33:41;;;;;;;1.50;1.20;;;;;;;;;;7390713;19;20555;-83
2022/04/25 00:36:07;;;;;;;2.65;1.65;;;;;;;;;;7392722;19;20018;-83
2022/04/25 00:38:32;;;;;;;2.70;1.50;;;;;;;;;;7390825;19;20007;-83
2022/04/25 00:40:57;;;;;;;2.78;1.83;;;;;;;;;;7391999;19;20010;-82
2022/04/25 00:43:23;;;;;;;2.08;1.42;;;;;;;;;;7388279;19;20110;-83
2022/04/25 00:45:48;;;;;;;1.92;1.60;;;;;;;;;;7391624;19;20030;-83
2022/04/25 00:48:13;;;;;;;3.28;1.92;;;;;;;;;;7389656;19;20436;-84
2022/04/25 00:50:39;;;;;;;1.85;1.35;;;;;;;;;;7391100;19;20011;-83
2022/04/25 00:53:08;;;;;;;3.08;1.77;;;;;;;;;;7388460;19;20830;-84
2022/04/25 00:55:36;;;;;;;2.50;1.88;;;;;;;;;;7389605;19;20011;-83
2022/04/25 00:58:01;;;;;;;4.13;1.95;;;;;;;;;;7389304;19;20010;-84
2022/04/25 01:00:26;;;;;;;2.08;1.55;;;;;;;;;;7390975;19;20478;-83
2022/04/25 01:02:52;;;;;;;2.60;1.58;;;;;;;;;;7388321;19;20505;-84
2022/04/25 01:05:17;;;;;;;2.67;1.50;;;;;;;;;;7388500;19;20017;-84
2022/04/25 01:07:43;;;;;;;2.05;1.70;;;;;;;;;;7391757;19;20013;-84
2022/04/25 01:10:10;;;;;;;2.15;1.75;;;;;;;;;;7391573;19;20358;-84
2022/04/25 01:12:35;;;;;;;2.58;1.73;;;;;;;;;;7388989;19;20316;-83
2022/04/25 01:15:07;;;;;;;4.53;1.90;;;;;;;;;;7392344;19;20468;-83
2022/04/25 01:17:32;;;;;;;6.35;2.10;;;;;;;;;;7388016;19;20034;-83
2022/04/25 01:19:59;;;;;;;6.63;3.13;;;;;;;;;;7424167;19;20007;-83
2022/04/25 01:22:31;;;;;;;2.70;1.92;;;;;;;;;;7422065;19;20030;-82
2022/04/25 01:27:41;;;;;;;2.42;1.80;;;;;;;;;;7389619;19;20035;-82
2022/04/25 01:30:09;;;;;;;5.47;2.00;;;;;;;;;;7393229;19;20015;-83
2022/04/25 01:32:35;;;;;;;3.28;2.03;;;;;;;;;;7388736;19;20018;-82
2022/04/25 01:35:00;;;;;;;3.30;2.35;;;;;;;;;;7392361;19;20013;-82
2022/04/25 01:37:25;;;;;;;3.08;2.30;;;;;;;;;;7390334;19;20014;-82
2022/04/25 01:39:52;;;;;;;3.25;2.50;;;;;;;;;;7392265;19;20011;-83
2022/04/25 01:42:20;;;;;;;3.80;2.42;;;;;;;;;;7390480;19;20035;-82
2022/04/25 01:44:45;;;;;;;4.25;2.40;;;;;;;;;;7391264;19;20022;-83
2022/04/25 01:47:11;;;;;;;4.22;2.63;;;;;;;;;;7391611;19;20010;-82
2022/04/25 01:49:37;;;;;;;4.78;2.88;;;;;;;;;;7389219;19;20018;-83
2022/04/25 01:52:06;;;;;;;4.57;2.92;;;;;;;;;;7391432;19;20038;-82
2022/04/25 01:54:32;;;;;;;4.82;3.30;;;;;;;;;;7391528;19;20011;-82
2022/04/25 01:57:00;;;;;;;4.43;3.17;;;;;;;;;;7390178;19;20011;-83
2022/04/25 01:59:26;;;;;;;4.15;3.05;;;;;;;;;;7390402;19;20728;-83
2022/04/25 02:01:51;;;;;;;4.60;3.05;;;;;;;;;;7391211;19;20011;-83
2022/04/25 02:04:17;;;;;;;5.03;3.08;;;;;;;;;;7388803;19;20038;-83
2022/04/25 02:06:42;;;;;;;4.43;3.30;;;;;;;;;;7392161;19;20011;-82
2022/04/25 02:09:08;;;;;;;4.88;3.42;;;;;;;;;;7392958;19;20006;-83
2022/04/25 02:11:34;;;;;;;4.72;3.20;;;;;;;;;;7391639;19;20007;-83
2022/04/25 02:13:59;;;;;;;4.40;2.80;;;;;;;;;;7389674;19;20097;-84
2022/04/25 02:16:25;;;;;;;4.53;3.13;;;;;;;;;;7396015;19;20120;-83
2022/04/25 02:18:51;;;;;;;4.82;2.65;;;;;;;;;;7392415;19;20003;-84
2022/04/25 02:21:17;;;;;;;4.35;3.05;;;;;;;;;;7395719;19;20042;-84
2022/04/25 02:23:43;;;;;;;5.57;3.25;;;;;;;;;;7397600;19;20076;-84
2022/04/25 02:26:08;;;;;;;4.45;2.85;;;;;;;;;;7405576;19;20030;-84
2022/04/25 02:28:34;;;;;;;4.60;3.15;;;;;;;;;;7401451;19;20364;-84
2022/04/25 02:31:02;;;;;;;4.47;3.08;;;;;;;;;;7404659;19;20079;-84
2022/04/25 02:33:27;;;;;;;5.40;3.47;;;;;;;;;;7401534;19;20017;-84
2022/04/25 02:35:54;;;;;;;4.47;3.22;;;;;;;;;;7403501;19;20059;-84
2022/04/25 02:38:19;;;;;;;4.97;3.25;;;;;;;;;;7404629;19;20123;-84
2022/04/25 02:40:45;;;;;;;4.45;2.88;;;;;;;;;;7406053;19;20043;-85
2022/04/25 02:43:10;;;;;;;7.80;3.80;;;;;;;;;;7404240;19;20010;-85
2022/04/25 02:45:35;;;;;;;3.85;2.97;;;;;;;;;;7403765;19;20046;-85
2022/04/25 02:48:01;;;;;;;7.75;3.40;;;;;;;;;;7404141;19;20021;-85
2022/04/25 02:50:26;;;;;;;5.93;3.42;;;;;;;;;;7404750;19;20014;-85
2022/04/25 02:52:53;;;;;;;5.45;3.20;;;;;;;;;;7404292;19;20103;-85
2022/04/25 02:55:19;;;;;;;4.78;3.25;;;;;;;;;;7402885;19;20348;-84
2022/04/25 02:57:45;;;;;;;4.70;3.20;;;;;;;;;;7407650;19;20007;-86
2022/04/25 03:00:11;;;;;;;4.93;3.65;;;;;;;;;;7403008;19;20335;-87
2022/04/25 03:02:36;;;;;;;5.38;3.25;;;;;;;;;;7403139;19;20657;-86
2022/04/25 03:05:02;;;;;;;5.00;3.25;;;;;;;;;;7401652;19;20006;-86
2022/04/25 03:07:27;;;;;;;5.93;3.30;;;;;;;;;;7405534;19;20507;-84
2022/04/25 03:09:53;;;;;;;5.82;3.85;;;;;;;;;;7403717;19;20021;-85
2022/04/25 03:12:18;;;;;;;4.68;3.75;;;;;;;;;;7400994;19;20130;-84
2022/04/25 03:14:45;;;;;;;4.80;3.05;;;;;;;;;;7404536;19;20007;-84
2022/04/25 03:17:11;;;;;;;6.55;3.47;;;;;;;;;;7402946;19;20127;-85
2022/04/25 03:19:37;;;;;;;6.90;3.78;;;;;;;;;;7403995;19;20042;-84
2022/04/25 03:22:03;;;;;;;4.50;3.58;;;;;;;;;;7404016;19;20015;-85
2022/04/25 03:24:30;;;;;;;5.13;3.38;;;;;;;;;;7402050;19;20024;-84
2022/04/25 03:26:55;;;;;;;5.88;3.67;;;;;;;;;;7401891;19;20472;-85
2022/04/25 03:29:21;;;;;;;5.80;3.95;;;;;;;;;;7404939;19;20014;-84
2022/04/25 03:31:46;;;;;;;6.47;4.32;;;;;;;;;;7403075;19;20010;-84
2022/04/25 03:34:11;;;;;;;5.28;3.88;;;;;;;;;;7400246;19;20029;-86
2022/04/25 03:36:37;;;;;;;7.53;4.63;;;;;;;;;;7400673;19;20090;-83
2022/04/25 03:39:03;;;;;;;7.78;4.60;;;;;;;;;;7405677;19;20313;-83
2022/04/25 03:41:31;;;;;;;6.70;4.55;;;;;;;;;;7405222;19;20441;-84
2022/04/25 03:43:56;;;;;;;7.13;4.57;;;;;;;;;;7403765;19;20014;-84
2022/04/25 03:46:21;;;;;;;7.93;4.70;;;;;;;;;;7404598;19;20049;-84
2022/04/25 03:48:46;;;;;;;7.47;4.30;;;;;;;;;;7407911;19;20038;-84
2022/04/25 03:51:12;;;;;;;7.50;4.30;;;;;;;;;;7400716;19;20007;-85
2022/04/25 03:53:38;;;;;;;7.38;4.40;;;;;;;;;;7410160;19;20455;-84
2022/04/25 03:58:48;;;;;;;8.10;5.13;;;;;;;;;;7410735;19;20017;-86
2022/04/25 04:01:13;;;;;;;6.75;4.40;;;;;;;;;;7405940;19;20010;-86
2022/04/25 04:03:38;;;;;;;7.75;4.93;;;;;;;;;;7410769;19;20082;-85
2022/04/25 04:06:04;;;;;;;7.70;4.78;;;;;;;;;;7408853;19;20412;-84
2022/04/25 04:08:29;;;;;;;9.70;5.45;;;;;;;;;;7412412;19;20033;-86
2022/04/25 04:10:54;;;;;;;7.22;5.15;;;;;;;;;;7415962;19;20351;-87
2022/04/25 04:13:19;;;;;;;6.50;4.68;;;;;;;;;;7424685;19;20005;-86
2022/04/25 04:15:45;;;;;;;7.45;4.78;;;;;;;;;;7425461;19;20003;-86
2022/04/25 04:18:10;;;;;;;6.80;4.75;;;;;;;;;;7426541;19;19999;-86
2022/04/25 04:20:41;;;;;;;6.85;4.47;;;;;;;;;;7425286;19;20010;-86
2022/04/25 04:23:07;;;;;;;7.13;4.75;;;;;;;;;;7401505;19;20031;-82
2022/04/25 04:25:33;;;;;;;7.47;4.75;;;;;;;;;;7400609;19;20014;-85
2022/04/25 04:28:29;;;;;;;6.13;4.50;;;;;;;;;;7400218;19;20006;-84
2022/04/25 04:30:54;;;;;;;7.60;5.30;;;;;;;;;;7403150;19;20089;-84
2022/04/25 04:33:20;;;;;;;8.27;5.45;;;;;;;;;;7397177;19;20586;-84
2022/04/25 04:38:29;;;;;;;8.80;6.15;;;;;;;;;;7403367;19;20041;-84
2022/04/25 04:40:54;;;;;;;9.27;5.72;;;;;;;;;;7401873;19;20018;-85
2022/04/25 04:43:19;;;;;;;8.57;5.70;;;;;;;;;;7401073;19;20035;-84
2022/04/25 04:45:45;;;;;;;9.82;6.28;;;;;;;;;;7402834;19;20021;-85
2022/04/25 04:48:23;;;;;;;9.27;6.55;;;;;;;;;;7401498;19;20074;-83
2022/04/25 04:50:50;;;;;;;9.32;5.90;;;;;;;;;;7403989;19;20038;-84
2022/04/25 04:53:47;;;;;;;10.05;6.38;;;;;;;;;;7402573;19;20139;-84
2022/04/25 04:56:53;;;;;;;10.02;5.35;;;;;;;;;;7403388;19;20014;-84
2022/04/25 05:00:23;;;;;;;8.43;6.43;;;;;;;;;;7401936;19;20026;-81
2022/04/25 05:03:42;;;;;;;7.90;5.40;;;;;;;;;;7402298;19;20046;-84
2022/04/25 05:33:53;;;;;;;9.68;7.05;;;;;;;;;;7398551;19;20495;-83
2022/04/25 05:47:15;;;;;;;10.13;6.45;;;;;;;;;;7393782;19;20112;-82
2022/04/25 06:00:45;;;;;;;9.52;6.57;;;;;;;;;;7396602;19;19997;-81
2022/04/25 06:03:40;;;;;;;8.82;5.93;;;;;;;;;;7399617;19;20074;-83
2022/04/25 06:07:05;;;;;;;12.15;7.03;;;;;;;;;;7400072;19;20018;-81
2022/04/25 06:13:35;;;;;;;11.07;7.35;;;;;;;;;;7398722;19;20452;-81
2022/04/25 06:16:06;;;;;;;11.25;7.25;;;;;;;;;;7402175;19;20114;-81
2022/04/25 06:18:34;;;;;;;12.13;7.45;;;;;;;;;;7400555;19;20015;-79
2022/04/25 06:21:37;;;;;;;11.88;7.65;;;;;;;;;;7404532;19;20010;-79
2022/04/25 06:31:58;;;;;;;13.07;8.27;;;;;;;;;;7403695;19;20144;-82
2022/04/25 06:34:24;;;;;;;12.93;7.32;;;;;;;;;;7394311;19;20054;-81
2022/04/25 06:37:10;;;;;;;12.88;7.85;;;;;;;;;;7399480;19;20040;-82
2022/04/25 06:43:10;;;;;;;14.35;8.70;;;;;;;;;;7405364;19;20014;-81
2022/04/25 06:45:35;;;;;;;12.43;8.40;;;;;;;;;;7398855;19;20002;-83
2022/04/25 06:48:01;;;;;;;14.10;9.30;;;;;;;;;;7393523;19;20456;-82
2022/04/25 06:50:27;;;;;;;12.63;8.73;;;;;;;;;;7391996;19;20013;-82
2022/04/25 06:52:52;;;;;;;14.52;9.45;;;;;;;;;;7391610;19;20044;-84
2022/04/25 06:55:19;;;;;;;12.90;8.85;;;;;;;;;;7394763;19;20054;-83
2022/04/25 06:57:44;;;;;;;12.75;8.70;;;;;;;;;;7396787;19;20355;-82
2022/04/25 07:03:31;;;;;;;12.95;8.32;;;;;;;;;;7395133;19;19990;-82
2022/04/25 07:05:57;;;;;;;14.63;8.82;;;;;;;;;;7394920;19;20002;-84
2022/04/25 07:08:22;;;;;;;13.63;8.95;;;;;;;;;;7396051;19;20011;-83
2022/04/25 07:10:47;;;;;;;13.13;9.18;;;;;;;;;;7394973;19;20006;-81
2022/04/25 07:13:13;;;;;;;14.65;8.50;;;;;;;;;;7395283;19;20041;-82
2022/04/25 07:15:38;;;;;;;12.18;8.48;;;;;;;;;;7396433;19;20106;-81
2022/04/25 07:18:03;;;;;;;12.00;8.40;;;;;;;;;;7393933;19;20015;-80
2022/04/25 07:20:29;;;;;;;13.40;8.80;;;;;;;;;;7395549;19;20038;-81
2022/04/25 07:28:50;;;;;;;11.68;7.47;;;;;;;;;;7394418;19;20041;-82
2022/04/25 07:31:16;;;;;;;12.32;8.10;;;;;;;;;;7394617;19;20022;-82
2022/04/25 07:33:43;;;;;;;12.40;8.38;;;;;;;;;;7394886;19;20531;-83
2022/04/25 07:36:13;;;;;;;10.35;7.25;;;;;;;;;;7392954;19;20010;-82
2022/04/25 07:38:39;;;;;;;11.10;8.00;;;;;;;;;;7394935;19;20276;-83
2022/04/25 07:45:05;;;;;;;10.55;7.43;;;;;;;;;;7393252;19;19994;-80
2022/04/25 07:47:43;;;;;;;12.02;7.78;;;;;;;;;;7391445;19;20010;-81
2022/04/25 07:50:13;;;;;;;13.60;7.70;;;;;;;;;;7389199;19;20126;-80
2022/04/25 07:52:39;;;;;;;10.50;7.32;;;;;;;;;;7390898;19;20345;-82
2022/04/25 07:55:06;;;;;;;11.23;7.13;;;;;;;;;;7404131;19;20014;-82
2022/04/25 07:57:32;;;;;;;9.02;6.70;;;;;;;;;;7389198;19;20018;-83
2022/04/25 07:59:57;;;;;;;10.48;7.13;;;;;;;;;;7394785;19;20018;-82
2022/04/25 08:02:23;;;;;;;9.23;6.88;;;;;;;;;;7390327;19;20014;-82
2022/04/25 08:04:49;;;;;;;7.88;6.03;;;;;;;;;;7393842;19;20067;-82
2022/04/25 08:07:14;;;;;;;7.97;6.10;;;;;;;;;;7396083;19;20003;-84
2022/04/25 08:09:40;;;;;;;7.50;5.30;;;;;;;;;;7392629;19;20029;-81
2022/04/25 08:37:23;;;;;;;5.03;3.72;;;;;;;;;;7392482;19;20058;-85
2022/04/25 08:57:53;;;;;;;5.13;3.85;;;;;;;;;;7402852;19;20546;-82
2022/04/25 09:54:47;;;;;;;7.80;5.47;;;;;;;;;;7403203;19;19994;-83
2022/04/25 09:57:31;;;;;;;6.38;4.57;;;;;;;;;;7398311;19;20023;-82
2022/04/25 09:59:56;;;;;;;7.25;5.40;;;;;;;;;;7395039;19;20121;-82
2022/04/25 10:02:22;;;;;;;4.90;4.18;;;;;;;;;;7397728;19;20317;-84
2022/04/25 10:08:53;;;;;;;6.18;5.15;;;;;;;;;;7401464;19;19994;-82
2022/04/25 10:18:48;;;;;;;6.65;5.20;;;;;;;;;;7396739;19;20491;-83
2022/04/25 10:21:14;;;;;;;6.90;5.00;;;;;;;;;;7390000;19;20126;-83
2022/04/25 10:23:40;;;;;;;4.78;4.10;;;;;;;;;;7395192;19;20007;-83
2022/04/25 10:26:05;;;;;;;5.63;5.03;;;;;;;;;;7396101;19;20469;-82
2022/04/25 10:28:35;;;;;;;6.68;5.15;;;;;;;;;;7387982;19;20007;-80
2022/04/25 10:31:04;;;;;;;5.05;4.55;;;;;;;;;;7392371;19;20003;-83
2022/04/25 10:33:47;;;;;;;7.13;4.72;;;;;;;;;;7388540;19;20018;-81
2022/04/25 10:36:38;;;;;;;9.27;4.85;;;;;;;;;;7388521;19;20042;-80
2022/04/25 10:39:21;;;;;;;5.10;4.13;;;;;;;;;;7389695;19;20010;-82
2022/04/25 10:44:36;;;;;;;5.60;4.40;;;;;;;;;;7395642;19;20301;-81
2022/04/25 10:47:14;;;;;;;6.95;4.50;;;;;;;;;;7403173;19;20011;-78
2022/04/25 10:49:59;;;;;;;4.85;4.38;;;;;;;;;;7403287;19;20011;-82
2022/04/25 10:52:54;;;;;;;6.47;4.53;;;;;;;;;;7390100;19;20018;-83
2022/04/25 10:55:34;;;;;;;5.32;3.97;;;;;;;;;;7398356;19;20011;-81
2022/04/25 10:58:02;;;;;;;5.53;4.47;;;;;;;;;;7397815;19;20010;-82
2022/04/25 11:00:37;;;;;;;6.03;4.50;;;;;;;;;;7394066;19;20135;-80
2022/04/25 11:03:04;;;;;;;10.55;4.80;;;;;;;;;;7393642;19;20009;-79
2022/04/25 11:05:29;;;;;;;5.35;4.60;;;;;;;;;;7399339;19;20016;-82
2022/04/25 11:08:20;;;;;;;5.68;4.50;;;;;;;;;;7400246;19;20376;-82
2022/04/25 11:32:25;;;;;;;7.60;5.15;;;;;;;;;;7394683;19;19990;-82
2022/04/25 11:35:25;;;;;;;;;;;;;;;;;;7394023;19;20362;-81
2022/04/25 11:39:50;;;;;;;5.47;4.38;;;;;;;;;;7391187;19;19910;-84
2022/04/25 11:45:01;;;;;;;6.38;4.20;;;;;;;;;;7398149;19;19985;-81
2022/04/25 11:47:47;;;;;;;6.60;5.30;;;;;;;;;;7394617;19;20030;-79
2022/04/25 11:50:12;;;;;;;5.95;4.70;;;;;;;;;;7397041;19;20033;-80
2022/04/25 11:52:48;;;;;;;7.05;4.97;;;;;;;;;;7397457;19;20119;-79
2022/04/25 11:55:35;;;;;;;6.05;4.35;;;;;;;;;;7396968;19;19999;-81
2022/04/25 11:58:05;;;;;;;6.15;4.00;;;;;;;;;;7395211;19;20070;-82
2022/04/25 12:00:33;;;;;;;4.95;4.10;;;;;;;;;;7395242;19;20376;-80
2022/04/25 12:02:58;;;;;;;4.90;4.35;;;;;;;;;;7388357;19;20030;-79
2022/04/25 12:05:29;;;;;;;4.70;3.97;;;;;;;;;;7392945;19;20453;-80
2022/04/25 12:16:07;;;;;;;3.92;3.30;;;;;;;;;;7381994;19;20023;-81
2022/04/25 12:18:33;;;;;;;4.30;3.50;;;;;;;;;;7384322;19;20038;-81
2022/04/25 12:21:00;;;;;;;5.18;4.00;;;;;;;;;;7394683;19;20006;-80
2022/04/25 12:23:28;;;;;;;5.88;3.55;;;;;;;;;;7386645;19;20006;-82
2022/04/25 12:25:55;;;;;;;4.20;3.80;;;;;;;;;;7393571;19;20022;-81
2022/04/25 12:28:26;;;;;;;5.18;3.78;;;;;;;;;;7392702;19;20074;-80
2022/04/25 12:31:03;;;;;;;4.45;4.03;;;;;;;;;;7391415;19;20014;-83
2022/04/25 12:33:32;;;;;;;4.75;3.95;;;;;;;;;;7389847;19;20126;-82
2022/04/25 12:36:11;;;;;;;4.25;3.40;;;;;;;;;;7388585;19;20006;-81
2022/04/25 12:42:01;;;;;;;4.28;3.55;;;;;;;;;;7396962;19;20017;-82
2022/04/25 12:44:28;;;;;;;4.60;3.72;;;;;;;;;;7388169;19;20014;-84
2022/04/25 12:47:12;;;;;;;3.85;2.80;;;;;;;;;;7392120;19;20003;-83
2022/04/25 12:49:39;;;;;;;3.17;2.88;;;;;;;;;;7389188;19;20014;-81
2022/04/25 12:52:10;;;;;;;3.83;3.42;;;;;;;;;;7383343;19;20010;-81
2022/04/25 12:54:42;;;;;;;3.92;3.10;;;;;;;;;;7387961;19;20448;-82
2022/04/25 12:57:13;;;;;;;4.07;3.35;;;;;;;;;;7392374;19;20002;-82
2022/04/25 12:59:40;;;;;;;5.22;3.50;;;;;;;;;;7388891;19;20046;-82
2022/04/25 13:02:12;;;;;;;3.95;3.03;;;;;;;;;;7389199;19;20010;-81
2022/04/25 13:04:57;;;;;;;4.18;3.42;;;;;;;;;;7389815;19;20190;-82
2022/04/25 13:07:24;;;;;;;;;;;;;;;;;;7390600;19;20029;-81
2022/04/25 13:09:53;;;;;;;3.83;3.40;;;;;;;;;;7389728;19;19937;-82
2022/04/25 13:12:19;;;;;;;3.35;3.05;;;;;;;;;;7390667;19;20039;-81
2022/04/25 13:14:45;;;;;;;3.78;3.10;;;;;;;;;;7391694;19;20003;-81
2022/04/25 13:17:11;;;;;;;4.25;3.80;;;;;;;;;;7393007;19;20010;-82
2022/04/25 13:19:37;;;;;;;3.30;2.83;;;;;;;;;;7387475;19;20010;-82
2022/04/25 13:22:03;;;;;;;3.65;3.13;;;;;;;;;;7389409;19;20010;-87
2022/04/25 13:24:28;;;;;;;3.60;3.10;;;;;;;;;;7386921;19;20011;-79
2022/04/25 13:26:54;;;;;;;3.35;2.97;;;;;;;;;;7388904;19;20025;-81
2022/04/25 13:29:20;;;;;;;4.25;3.42;;;;;;;;;;7390588;19;20025;-80
2022/04/25 13:31:45;;;;;;;5.57;3.30;;;;;;;;;;7388286;19;20002;-81
2022/04/25 13:34:10;;;;;;;2.90;2.70;;;;;;;;;;7385357;19;20006;-81
2022/04/25 13:37:16;;;;;;;3.90;3.00;;;;;;;;;;7396667;19;20010;-83
2022/04/25 13:39:58;;;;;;;3.05;2.58;;;;;;;;;;7387762;19;20011;-81
2022/04/25 13:42:23;;;;;;;3.78;2.88;;;;;;;;;;7392161;19;20042;-82
2022/04/25 13:44:48;;;;;;;3.05;2.75;;;;;;;;;;7393854;19;20483;-82
2022/04/25 13:47:14;;;;;;;3.17;2.83;;;;;;;;;;7397322;19;19998;-81
2022/04/25 13:49:39;;;;;;;3.85;2.97;;;;;;;;;;7389977;19;20115;-82
2022/04/25 13:55:36;;;;;;;3.25;2.95;;;;;;;;;;7395450;19;20389;-81
2022/04/25 13:58:28;;;;;;;3.60;3.22;;;;;;;;;;7396933;19;19998;-82
2022/04/25 14:01:27;;;;;;;3.35;2.72;;;;;;;;;;7392724;19;20014;-82
2022/04/25 14:04:41;;;;;;;2.78;2.40;;;;;;;;;;7390496;19;20014;-79
2022/04/25 14:08:10;;;;;;;3.38;3.08;;;;;;;;;;7391192;19;20486;-83
2022/04/25 14:10:59;;;;;;;3.83;3.00;;;;;;;;;;7390167;19;20002;-83
2022/04/25 14:13:25;;;;;;;3.35;2.72;;;;;;;;;;7391882;19;20086;-84
2022/04/25 14:26:37;;;;;;;3.28;2.72;;;;;;;;;;7399443;19;20616;-82
2022/04/25 14:29:51;;;;;;;2.58;2.30;;;;;;;;;;7398663;19;20003;-81
2022/04/25 14:32:43;;;;;;;4.00;2.38;;;;;;;;;;7393086;19;20039;-82
2022/04/25 14:35:37;;;;;;;3.03;2.72;;;;;;;;;;7398160;19;20018;-83
2022/04/25 14:42:02;;;;;;;3.58;2.75;;;;;;;;;;7393908;19;20005;-82
2022/04/25 14:44:32;;;;;;;3.08;2.45;;;;;;;;;;7395483;19;20010;-82
2022/04/25 14:47:48;;;;;;;3.10;2.55;;;;;;;;;;7399697;19;20011;-83
2022/04/25 14:57:43;;;;;;;2.50;2.30;;;;;;;;;;7396435;19;20500;-84
2022/04/25 15:00:45;;;;;;;2.08;1.90;;;;;;;;;;7394132;19;20057;-82
2022/04/25 15:03:37;;;;;;;3.05;2.45;;;;;;;;;;7386707;19;20020;-81
2022/04/25 15:06:20;;;;;;;6.32;2.78;;;;;;;;;;7391280;19;20003;-82
2022/04/25 15:09:25;;;;;;;;;;;;;;;;;;;;;
2022/04/25 15:12:39;;;;;;;2.42;2.13;;;;;;;;;;7389954;19;20101;-81
2022/04/25 15:15:14;;;;;;;2.67;2.33;;;;;;;;;;7393182;19;20010;-80
2022/04/25 15:17:49;;;;;;;2.75;2.50;;;;;;;;;;7392542;19;20335;-81
2022/04/25 15:28:03;;;;;;;2.80;1.75;;;;;;;;;;7397545;19;20097;-83
2022/04/25 15:34:31;;;;;;;4.60;3.92;;;;;;;;;;7394748;19;20029;-80
2022/04/25 15:37:02;;;;;;;6.90;4.68;;;;;;;;;;7389188;19;20009;-81
2022/04/25 15:40:07;;;;;;;5.95;5.13;;;;;;;;;;7396368;19;20003;-81
2022/04/25 15:42:47;;;;;;;6.57;4.45;;;;;;;;;;7387384;19;20012;-83
2022/04/25 15:45:16;;;;;;;5.25;3.50;;;;;;;;;;7389066;19;20067;-81
2022/04/25 15:51:47;;;;;;;4.57;3.83;;;;;;;;;;7391257;19;20022;-83
2022/04/25 15:58:14;;;;;;;8.02;4.30;;;;;;;;;;7395410;19;20066;-82
2022/04/25 16:01:43;;;;;;;6.78;4.18;;;;;;;;;;7393420;19;20110;-82
2022/04/25 16:07:38;;;;;;;4.85;4.03;;;;;;;;;;7395887;19;20001;-81
2022/04/25 16:10:04;;;;;;;4.97;3.78;;;;;;;;;;7396174;19;20122;-81
2022/04/25 16:12:29;;;;;;;4.70;3.55;;;;;;;;;;7395400;19;20010;-83
2022/04/25 16:15:14;;;;;;;5.75;3.95;;;;;;;;;;7397284;19;20353;-81
2022/04/25 16:17:45;;;;;;;4.73;3.63;;;;;;;;;;7394237;19;20013;-82
2022/04/25 16:20:10;;;;;;;5.53;3.80;;;;;;;;;;7389818;19;20006;-81
2022/04/25 16:22:36;;;;;;;4.78;3.45;;;;;;;;;;7392053;19;20025;-83
2022/04/25 16:25:01;;;;;;;6.07;3.70;;;;;;;;;;7391682;19;20006;-84
2022/04/25 16:27:27;;;;;;;6.10;3.42;;;;;;;;;;7394403;19;20007;-83
2022/04/25 16:29:53;;;;;;;5.45;4.30;;;;;;;;;;7394636;19;20020;-81
2022/04/25 16:32:18;;;;;;;5.88;4.25;;;;;;;;;;7392753;19;20007;-82
2022/04/25 16:34:48;;;;;;;5.53;3.47;;;;;;;;;;7394329;19;20414;-82
2022/04/25 16:37:14;;;;;;;4.13;3.47;;;;;;;;;;7393177;19;20006;-83
2022/04/25 16:39:40;;;;;;;6.35;4.15;;;;;;;;;;7389814;19;20045;-81
2022/04/25 16:42:08;;;;;;;6.05;4.10;;;;;;;;;;7389687;19;20010;-83
2022/04/25 16:44:38;;;;;;;6.28;4.20;;;;;;;;;;7392636;19;20041;-83
2022/04/25 16:47:06;;;;;;;4.85;3.53;;;;;;;;;;7395153;19;20116;-82
2022/04/25 16:49:41;;;;;;;6.80;4.30;;;;;;;;;;7392025;19;20474;-83
2022/04/25 16:52:12;;;;;;;5.00;3.58;;;;;;;;;;7391474;19;20006;-83
2022/04/25 16:54:38;;;;;;;5.85;4.03;;;;;;;;;;7392289;19;20021;-83
2022/04/25 16:57:14;;;;;;;8.30;4.35;;;;;;;;;;7395847;19;20022;-83
2022/04/25 16:59:40;;;;;;;6.53;4.28;;;;;;;;;;7394219;19;20003;-82
2022/04/25 17:02:06;;;;;;;6.25;3.78;;;;;;;;;;7391319;19;20014;-81
2022/04/25 17:04:39;;;;;;;6.05;4.25;;;;;;;;;;7392501;19;20014;-83
2022/04/25 17:07:06;;;;;;;5.20;3.90;;;;;;;;;;7391461;19;20014;-83
2022/04/25 17:09:37;;;;;;;9.48;6.10;;;;;;;;;;7385145;19;20139;-82
2022/04/25 17:12:03;;;;;;;8.65;4.72;;;;;;;;;;7392055;19;20006;-82
2022/04/25 17:14:28;;;;;;;5.70;4.18;;;;;;;;;;7388550;19;20021;-83
2022/04/25 17:16:55;;;;;;;4.35;3.33;;;;;;;;;;7392961;19;20756;-83
2022/04/25 17:19:21;;;;;;;5.40;3.67;;;;;;;;;;7390367;19;20010;-83
2022/04/25 17:21:46;;;;;;;8.13;3.80;;;;;;;;;;7389677;19;20006;-83
2022/04/25 17:24:19;;;;;;;5.75;4.05;;;;;;;;;;7388851;19;20035;-83
2022/04/25 17:27:31;;;;;;;4.85;3.78;;;;;;;;;;7390597;19;20015;-83
